Time;durP1;ratioP1;P1;durP2;ratioP2;P2;SDS_P1;SDS_P2;PMS_P1;PMS_P2;Temp;Humidity;BMP_temperature;BMP_pressure;BME280_temperature;BME280_humidity;BME280_pressure;Samples;Min_cycle;Max_cycle;Signal;HPM_P1;HPM_P2
2023/05/24 00:00:41;;;;;;;1.87;1.43;;;12.70;95.70;;;;;;5119241;27;21049;-70
2023/05/24 00:03:08;;;;;;;1.60;1.50;;;12.70;96.00;;;;;;5119283;27;21206;-70
2023/05/24 00:05:36;;;;;;;1.93;1.80;;;12.80;95.80;;;;;;5110650;27;20655;-71
2023/05/24 00:08:03;;;;;;;2.60;2.17;;;12.80;95.60;;;;;;5119196;27;20618;-70
2023/05/24 00:10:31;;;;;;;1.57;1.30;;;12.80;95.60;;;;;;5119426;27;20875;-70
2023/05/24 00:12:58;;;;;;;3.17;1.90;;;12.90;95.40;;;;;;5122469;27;20627;-70
2023/05/24 00:15:25;;;;;;;2.77;1.70;;;12.90;95.50;;;;;;5121261;27;21262;-70
2023/05/24 00:17:52;;;;;;;2.73;1.90;;;12.80;95.40;;;;;;5114102;27;20627;-70
2023/05/24 00:20:19;;;;;;;2.63;1.23;;;12.50;95.60;;;;;;5121619;27;20619;-71
2023/05/24 00:22:46;;;;;;;2.20;2.10;;;12.50;95.70;;;;;;5119464;27;20975;-71
2023/05/24 00:25:13;;;;;;;2.23;1.73;;;12.50;95.80;;;;;;5118062;27;20620;-70
2023/05/24 00:27:41;;;;;;;5.37;2.03;;;12.50;96.00;;;;;;5119460;27;20631;-70
2023/05/24 00:30:08;;;;;;;3.43;1.93;;;12.50;96.10;;;;;;5121330;27;20630;-70
2023/05/24 00:32:35;;;;;;;2.33;2.13;;;12.70;96.10;;;;;;5121775;27;20622;-70
2023/05/24 00:35:02;;;;;;;2.07;1.57;;;12.70;95.90;;;;;;5119173;27;20659;-70
2023/05/24 00:37:29;;;;;;;2.10;1.97;;;12.70;95.80;;;;;;5115144;27;20628;-70
2023/05/24 00:39:56;;;;;;;2.10;1.47;;;12.80;95.80;;;;;;5117387;27;20636;-70
2023/05/24 00:42:22;;;;;;;3.23;2.23;;;12.70;95.70;;;;;;5124904;27;20663;-70
2023/05/24 00:44:51;;;;;;;4.03;2.03;;;12.60;95.90;;;;;;5118700;27;20644;-70
2023/05/24 00:47:17;;;;;;;2.10;1.37;;;12.70;95.90;;;;;;5109899;27;20640;-71
2023/05/24 00:49:44;;;;;;;3.13;2.90;;;12.60;96.00;;;;;;5116718;27;20693;-70
2023/05/24 00:52:11;;;;;;;3.17;2.33;;;12.50;96.10;;;;;;5119190;27;20663;-70
2023/05/24 00:54:39;;;;;;;1.90;1.33;;;12.60;96.10;;;;;;5121696;27;20615;-70
2023/05/24 00:57:06;;;;;;;2.80;2.10;;;12.60;96.00;;;;;;5121103;27;21034;-70
2023/05/24 00:59:33;;;;;;;4.10;2.20;;;12.60;96.10;;;;;;5112647;27;20631;-70
2023/05/24 01:02:01;;;;;;;2.70;2.50;;;12.50;96.00;;;;;;5119069;27;20760;-70
2023/05/24 01:04:31;;;;;;;1.70;1.60;;;12.50;96.20;;;;;;5119256;27;21074;-70
2023/05/24 01:07:13;;;;;;;3.03;2.13;;;12.60;96.30;;;;;;5120964;27;20650;-71
2023/05/24 01:09:55;;;;;;;4.47;2.33;;;12.80;95.90;;;;;;5108032;27;21123;-70
2023/05/24 01:12:31;;;;;;;4.07;1.93;;;12.80;94.60;;;;;;5118553;27;20667;-70
2023/05/24 01:15:07;;;;;;;1.93;1.80;;;12.90;93.70;;;;;;5120617;27;20659;-70
2023/05/24 01:17:47;;;;;;;1.90;1.60;;;12.90;93.20;;;;;;5119704;27;20623;-70
2023/05/24 01:20:19;;;;;;;1.30;1.13;;;12.80;93.50;;;;;;5116470;27;20738;-70
2023/05/24 01:23:19;;;;;;;1.70;1.60;;;12.80;93.30;;;;;;5119986;27;20701;-70
2023/05/24 01:25:53;;;;;;;3.23;2.20;;;12.70;93.80;;;;;;5118758;27;20774;-70
2023/05/24 01:28:24;;;;;;;2.40;1.80;;;12.70;94.20;;;;;;5118164;27;20618;-70
2023/05/24 01:30:53;;;;;;;5.93;1.70;;;12.70;93.20;;;;;;5118916;27;20668;-70
2023/05/24 01:33:21;;;;;;;1.97;1.53;;;12.60;93.10;;;;;;5120564;27;20828;-70
2023/05/24 01:35:48;;;;;;;2.53;1.73;;;12.50;93.10;;;;;;5118821;27;21291;-70
2023/05/24 01:38:15;;;;;;;2.20;1.63;;;12.70;93.40;;;;;;5117240;27;21242;-70
2023/05/24 01:40:43;;;;;;;1.43;1.23;;;12.70;93.40;;;;;;5116660;27;20644;-70
2023/05/24 01:43:16;;;;;;;2.50;1.50;;;12.50;94.10;;;;;;5111660;27;20615;-70
2023/05/24 01:45:58;;;;;;;6.87;2.13;;;12.40;94.30;;;;;;5117302;27;20725;-71
2023/05/24 01:48:34;;;;;;;1.87;1.73;;;12.30;94.20;;;;;;5102441;28;20622;-71
2023/05/24 01:51:05;;;;;;;1.90;1.57;;;12.30;94.40;;;;;;5116391;27;21210;-70
2023/05/24 01:53:35;;;;;;;1.97;1.80;;;12.20;94.70;;;;;;5120409;27;20622;-70
2023/05/24 01:56:06;;;;;;;5.00;1.83;;;12.20;94.30;;;;;;5120110;27;20682;-70
2023/05/24 01:58:34;;;;;;;3.67;2.40;;;12.10;94.20;;;;;;5117076;27;21000;-70
2023/05/24 02:01:03;;;;;;;3.13;1.73;;;12.10;94.20;;;;;;5110571;27;20656;-71
2023/05/24 02:03:31;;;;;;;3.47;1.53;;;12.30;93.90;;;;;;5117238;27;20626;-71
2023/05/24 02:05:58;;;;;;;2.47;2.27;;;12.40;93.20;;;;;;5117004;27;20654;-71
2023/05/24 02:08:26;;;;;;;4.17;2.37;;;12.40;93.30;;;;;;5118670;27;20987;-70
2023/05/24 02:10:54;;;;;;;2.30;1.30;;;12.40;92.80;;;;;;5114079;27;20646;-70
2023/05/24 02:13:21;;;;;;;2.77;1.43;;;12.30;92.70;;;;;;5113570;27;21048;-70
2023/05/24 02:15:48;;;;;;;2.40;1.80;;;12.30;92.80;;;;;;5119828;27;20665;-70
2023/05/24 02:18:17;;;;;;;2.57;1.40;;;12.30;92.80;;;;;;5120317;27;20625;-70
2023/05/24 02:20:44;;;;;;;2.03;1.47;;;12.20;93.10;;;;;;5107129;27;20671;-70
2023/05/24 02:23:11;;;;;;;2.80;1.87;;;12.30;93.20;;;;;;5119929;28;20672;-71
2023/05/24 02:25:38;;;;;;;2.10;1.90;;;12.30;93.20;;;;;;5118400;27;21104;-70
2023/05/24 02:28:05;;;;;;;2.23;1.70;;;12.40;93.00;;;;;;5116106;28;20627;-70
2023/05/24 02:30:32;;;;;;;8.80;2.93;;;12.30;92.90;;;;;;5115948;27;21025;-70
2023/05/24 02:32:59;;;;;;;4.50;1.90;;;12.40;92.40;;;;;;5119291;27;20631;-70
2023/05/24 02:35:27;;;;;;;7.30;1.83;;;12.40;92.70;;;;;;5119634;28;21312;-70
2023/05/24 02:37:57;;;;;;;5.37;3.00;;;12.40;92.60;;;;;;5118047;28;20667;-70
2023/05/24 02:40:25;;;;;;;1.70;1.60;;;12.40;92.60;;;;;;5114344;28;20648;-71
2023/05/24 02:42:52;;;;;;;3.47;2.63;;;12.50;92.70;;;;;;5113664;28;20620;-70
2023/05/24 02:45:19;;;;;;;2.70;1.80;;;12.30;92.60;;;;;;5119699;28;20634;-71
2023/05/24 02:47:46;;;;;;;2.40;2.20;;;12.20;92.50;;;;;;5119521;28;20604;-70
2023/05/24 02:50:14;;;;;;;2.40;2.13;;;12.10;92.80;;;;;;5115015;28;20727;-70
2023/05/24 02:52:42;;;;;;;3.77;2.50;;;12.10;92.60;;;;;;5116212;28;20639;-70
2023/05/24 02:55:10;;;;;;;1.97;1.60;;;12.10;92.90;;;;;;5116750;28;21331;-70
2023/05/24 02:57:37;;;;;;;2.97;2.10;;;12.00;92.90;;;;;;5119696;28;20675;-70
2023/05/24 03:00:08;;;;;;;6.47;1.77;;;11.90;93.00;;;;;;5119023;28;20729;-70
2023/05/24 03:02:37;;;;;;;2.27;1.50;;;11.90;93.00;;;;;;5109610;28;20635;-70
2023/05/24 03:05:04;;;;;;;4.23;1.77;;;11.90;92.80;;;;;;5116153;28;20627;-70
2023/05/24 03:07:32;;;;;;;2.07;1.70;;;11.90;93.00;;;;;;5118457;27;20637;-71
2023/05/24 03:10:00;;;;;;;3.37;2.10;;;11.70;93.20;;;;;;5118667;27;20733;-70
2023/05/24 03:12:28;;;;;;;1.63;1.53;;;11.70;93.20;;;;;;5118143;27;20639;-70
2023/05/24 03:14:55;;;;;;;3.00;1.87;;;11.70;93.30;;;;;;5119699;27;20724;-70
2023/05/24 03:17:23;;;;;;;3.20;1.97;;;11.70;93.40;;;;;;5115162;27;21315;-70
2023/05/24 03:19:51;;;;;;;4.43;1.93;;;11.70;93.50;;;;;;5119371;27;20627;-70
2023/05/24 03:22:19;;;;;;;3.73;2.07;;;11.60;93.40;;;;;;5119515;27;20654;-70
2023/05/24 03:24:47;;;;;;;5.67;2.13;;;11.60;93.50;;;;;;5122259;27;20630;-70
2023/05/24 03:27:15;;;;;;;2.50;2.00;;;11.60;93.70;;;;;;5123284;27;20979;-70
2023/05/24 03:29:44;;;;;;;4.10;1.87;;;11.70;93.80;;;;;;5121780;27;20621;-70
2023/05/24 03:32:11;;;;;;;12.13;2.10;;;11.60;93.60;;;;;;5119582;27;20743;-70
2023/05/24 03:34:40;;;;;;;2.87;2.30;;;11.40;93.80;;;;;;5119145;27;20635;-70
2023/05/24 03:37:07;;;;;;;3.70;2.00;;;11.50;94.10;;;;;;5122872;27;20673;-70
2023/05/24 03:39:33;;;;;;;2.58;2.38;;;11.60;93.90;;;;;;5115772;27;20834;-70
2023/05/24 03:42:00;;;;;;;1.30;1.20;;;11.60;93.60;;;;;;5119706;27;20232;-70
2023/05/24 03:44:28;;;;;;;3.83;2.37;;;11.50;94.00;;;;;;5119837;27;20633;-70
2023/05/24 03:46:55;;;;;;;1.70;1.60;;;11.70;93.70;;;;;;5119708;27;20779;-70
2023/05/24 03:49:22;;;;;;;2.80;2.37;;;11.80;93.50;;;;;;5120990;27;20658;-70
2023/05/24 03:51:49;;;;;;;2.13;1.93;;;11.90;93.40;;;;;;5122581;27;20638;-70
2023/05/24 03:54:16;;;;;;;2.87;1.80;;;11.80;93.60;;;;;;5120304;27;20618;-68
2023/05/24 03:56:43;;;;;;;2.27;2.07;;;11.80;93.50;;;;;;5119032;27;21244;-69
2023/05/24 03:59:10;;;;;;;2.80;1.80;;;11.70;93.70;;;;;;5114929;27;20631;-68
2023/05/24 04:01:39;;;;;;;2.23;1.60;;;11.60;93.30;;;;;;5121496;27;20699;-69
2023/05/24 04:04:06;;;;;;;4.00;2.60;;;11.60;93.70;;;;;;5122691;27;21082;-69
2023/05/24 04:06:35;;;;;;;8.00;3.10;;;11.70;93.50;;;;;;5119206;27;20665;-69
2023/05/24 04:09:04;;;;;;;4.47;2.63;;;11.80;93.50;;;;;;5119190;27;20653;-69
2023/05/24 04:11:31;;;;;;;2.30;1.90;;;11.70;93.30;;;;;;5120635;27;20649;-69
2023/05/24 04:14:00;;;;;;;1.87;1.77;;;11.70;93.40;;;;;;5122143;27;21048;-69
2023/05/24 04:16:27;;;;;;;1.67;1.57;;;11.80;92.90;;;;;;5120521;27;21236;-69
2023/05/24 04:18:56;;;;;;;5.13;2.47;;;11.80;93.00;;;;;;5120440;27;20992;-69
2023/05/24 04:21:23;;;;;;;11.10;2.30;;;11.80;93.00;;;;;;5121299;27;20746;-69
2023/05/24 04:23:50;;;;;;;2.67;1.60;;;11.80;93.00;;;;;;5118553;27;20743;-69
2023/05/24 04:26:17;;;;;;;4.80;1.50;;;11.60;93.30;;;;;;5118719;27;20954;-69
2023/05/24 04:28:44;;;;;;;4.20;1.97;;;11.50;93.50;;;;;;5119910;27;20651;-69
2023/05/24 04:31:11;;;;;;;2.30;1.40;;;11.60;93.20;;;;;;5120753;27;20711;-68
2023/05/24 04:33:38;;;;;;;1.40;1.30;;;11.60;93.70;;;;;;5118742;27;20623;-69
2023/05/24 04:36:07;;;;;;;4.07;2.67;;;11.60;93.40;;;;;;5121425;27;20667;-70
2023/05/24 04:38:34;;;;;;;2.97;1.97;;;11.50;93.80;;;;;;5121904;27;20625;-69
2023/05/24 04:41:02;;;;;;;1.73;1.40;;;11.60;93.70;;;;;;5118609;27;20743;-69
2023/05/24 04:43:28;;;;;;;5.40;2.57;;;11.70;93.40;;;;;;5117562;27;20619;-69
2023/05/24 04:45:55;;;;;;;2.83;1.77;;;11.70;93.10;;;;;;5119148;27;20675;-69
2023/05/24 04:48:23;;;;;;;4.47;2.30;;;11.60;93.70;;;;;;5124143;27;20635;-69
2023/05/24 04:50:51;;;;;;;1.90;1.73;;;11.60;93.50;;;;;;5116629;27;20687;-69
2023/05/24 04:53:19;;;;;;;1.63;1.43;;;11.70;93.40;;;;;;5121574;27;20629;-69
2023/05/24 04:55:46;;;;;;;2.13;1.80;;;11.70;93.00;;;;;;5121021;27;20647;-69
2023/05/24 04:58:14;;;;;;;2.20;1.70;;;11.60;93.20;;;;;;5119250;27;20628;-69
2023/05/24 05:00:40;;;;;;;4.70;1.73;;;11.60;93.70;;;;;;5117487;27;20648;-69
2023/05/24 05:03:07;;;;;;;3.60;2.43;;;11.60;93.60;;;;;;5118256;27;20639;-69
2023/05/24 05:05:34;;;;;;;1.87;1.67;;;11.60;93.60;;;;;;5109665;27;20749;-69
2023/05/24 05:08:01;;;;;;;2.30;2.10;;;11.60;93.60;;;;;;5113957;27;20965;-70
2023/05/24 05:10:29;;;;;;;6.50;2.60;;;11.70;92.90;;;;;;5116865;27;20647;-69
2023/05/24 05:12:56;;;;;;;3.47;1.83;;;11.70;93.40;;;;;;5114456;27;21183;-69
2023/05/24 05:15:24;;;;;;;1.97;1.77;;;11.70;93.20;;;;;;5118226;27;20686;-69
2023/05/24 05:17:51;;;;;;;4.10;1.73;;;11.70;93.20;;;;;;5120772;27;20757;-69
2023/05/24 05:20:18;;;;;;;1.50;1.40;;;11.50;93.60;;;;;;5120164;27;20633;-69
2023/05/24 05:22:46;;;;;;;2.77;2.27;;;11.60;93.50;;;;;;5118771;27;20623;-69
2023/05/24 05:25:13;;;;;;;2.90;1.73;;;11.60;93.50;;;;;;5116784;27;20628;-69
2023/05/24 05:27:41;;;;;;;3.23;1.77;;;11.60;93.30;;;;;;5118825;27;20627;-69
2023/05/24 05:30:09;;;;;;;3.10;1.93;;;11.40;93.50;;;;;;5112836;27;20632;-69
2023/05/24 05:32:36;;;;;;;2.37;1.97;;;11.50;93.60;;;;;;5113974;27;21188;-69
2023/05/24 05:35:03;;;;;;;2.30;1.73;;;11.40;93.40;;;;;;5109087;27;20733;-69
2023/05/24 05:37:30;;;;;;;7.90;2.30;;;11.50;93.70;;;;;;5116134;27;20665;-69
2023/05/24 05:39:57;;;;;;;7.73;2.30;;;11.50;93.60;;;;;;5118576;27;20614;-69
2023/05/24 05:42:23;;;;;;;5.30;1.90;;;11.70;93.10;;;;;;5120099;27;20668;-69
2023/05/24 05:44:52;;;;;;;2.87;2.07;;;11.80;93.00;;;;;;5119902;27;20710;-69
2023/05/24 05:47:19;;;;;;;2.63;2.23;;;11.80;92.90;;;;;;5116979;27;20650;-69
2023/05/24 05:49:45;;;;;;;4.83;2.10;;;11.90;92.70;;;;;;5110951;27;20628;-69
2023/05/24 05:52:12;;;;;;;2.40;1.70;;;11.90;92.70;;;;;;5117502;27;20774;-69
2023/05/24 05:54:39;;;;;;;2.90;2.53;;;12.00;92.60;;;;;;5120443;27;20629;-69
2023/05/24 05:57:07;;;;;;;3.97;2.20;;;11.90;93.10;;;;;;5119333;27;21226;-69
2023/05/24 05:59:34;;;;;;;2.97;1.97;;;11.80;92.90;;;;;;5114533;27;20642;-69
2023/05/24 06:02:03;;;;;;;3.53;2.17;;;11.90;93.40;;;;;;5109028;27;20712;-69
2023/05/24 06:04:29;;;;;;;3.30;2.50;;;11.90;92.90;;;;;;5103388;27;21215;-69
2023/05/24 06:06:56;;;;;;;2.67;1.97;;;11.90;93.40;;;;;;5114531;27;21026;-69
2023/05/24 06:09:23;;;;;;;3.43;1.70;;;11.90;93.00;;;;;;5118608;27;20628;-69
2023/05/24 06:11:52;;;;;;;2.27;2.13;;;11.70;93.20;;;;;;5114036;27;20650;-69
2023/05/24 06:14:21;;;;;;;6.57;2.50;;;11.70;93.10;;;;;;5116147;27;21198;-69
2023/05/24 06:16:47;;;;;;;2.23;1.97;;;11.90;92.80;;;;;;5115111;27;20675;-69
2023/05/24 06:19:17;;;;;;;3.13;2.37;;;12.10;92.60;;;;;;5118539;27;20638;-69
2023/05/24 06:21:46;;;;;;;6.20;1.60;;;12.20;92.20;;;;;;5110823;27;20650;-69
2023/05/24 06:24:13;;;;;;;7.33;2.10;;;12.20;92.60;;;;;;5124413;27;21035;-69
2023/05/24 06:26:40;;;;;;;1.73;1.63;;;12.10;93.00;;;;;;5114864;27;21219;-69
2023/05/24 06:29:08;;;;;;;4.10;2.03;;;11.90;93.00;;;;;;5119623;27;20613;-69
2023/05/24 06:31:35;;;;;;;2.00;1.80;;;11.80;93.20;;;;;;5114739;27;21010;-69
2023/05/24 06:34:01;;;;;;;3.73;2.40;;;12.00;92.90;;;;;;5105098;28;20744;-69
2023/05/24 06:36:32;;;;;;;3.00;2.47;;;12.10;93.10;;;;;;5118873;28;20662;-68
2023/05/24 06:39:00;;;;;;;2.90;2.43;;;12.10;92.90;;;;;;5117292;27;20672;-69
2023/05/24 06:41:27;;;;;;;2.30;1.60;;;12.10;93.00;;;;;;5115829;28;20758;-69
2023/05/24 06:43:53;;;;;;;1.90;1.70;;;12.20;93.20;;;;;;5117127;28;21170;-69
2023/05/24 06:46:20;;;;;;;3.50;2.27;;;12.10;93.20;;;;;;5119060;27;20654;-69
2023/05/24 06:48:47;;;;;;;3.67;2.20;;;12.10;92.90;;;;;;5123317;27;20647;-69
2023/05/24 06:51:14;;;;;;;2.00;1.80;;;12.30;92.90;;;;;;5118127;27;20655;-69
2023/05/24 06:53:42;;;;;;;3.50;2.47;;;12.40;92.80;;;;;;5114989;27;20631;-70
2023/05/24 06:56:09;;;;;;;5.13;2.23;;;12.50;91.80;;;;;;5121573;27;20659;-69
2023/05/24 06:58:36;;;;;;;2.70;2.30;;;12.60;91.20;;;;;;5121427;27;21246;-69
2023/05/24 07:01:03;;;;;;;4.50;2.20;;;12.70;90.70;;;;;;5119438;27;21113;-69
2023/05/24 07:03:30;;;;;;;3.10;2.73;;;12.60;91.10;;;;;;5105902;27;20620;-70
2023/05/24 07:05:57;;;;;;;2.83;1.60;;;12.50;92.00;;;;;;5118129;27;20643;-69
2023/05/24 07:08:25;;;;;;;2.83;1.90;;;12.40;92.80;;;;;;5122175;27;20625;-69
2023/05/24 07:10:53;;;;;;;5.10;2.17;;;12.30;93.10;;;;;;5122542;27;20747;-69
2023/05/24 07:13:20;;;;;;;2.70;2.33;;;12.20;93.00;;;;;;5116414;27;20635;-69
2023/05/24 07:15:47;;;;;;;2.87;2.30;;;12.20;92.70;;;;;;5119466;27;20650;-69
2023/05/24 07:18:14;;;;;;;1.60;1.50;;;12.40;92.70;;;;;;5120386;27;20668;-69
2023/05/24 07:20:41;;;;;;;4.83;2.80;;;12.40;92.20;;;;;;5125427;27;20648;-68
2023/05/24 07:23:07;;;;;;;3.80;3.37;;;12.30;92.80;;;;;;5119985;27;20628;-69
2023/05/24 07:25:34;;;;;;;4.33;2.40;;;12.30;93.00;;;;;;5120675;27;20654;-69
2023/05/24 07:28:02;;;;;;;5.60;2.30;;;12.30;92.60;;;;;;5122328;27;20624;-69
2023/05/24 07:30:29;;;;;;;3.50;1.77;;;12.10;92.80;;;;;;5112916;27;20655;-69
2023/05/24 07:32:56;;;;;;;1.70;1.60;;;12.00;92.90;;;;;;5110574;27;20621;-69
2023/05/24 07:35:23;;;;;;;9.03;2.67;;;12.00;93.30;;;;;;5119080;27;20762;-68
2023/05/24 07:37:50;;;;;;;2.77;2.40;;;12.10;93.30;;;;;;5120877;27;20665;-69
2023/05/24 07:40:17;;;;;;;3.27;2.53;;;12.30;92.60;;;;;;5122689;27;20611;-69
2023/05/24 07:42:46;;;;;;;2.90;2.53;;;12.50;92.10;;;;;;5118358;27;20625;-69
2023/05/24 07:45:14;;;;;;;2.47;2.10;;;12.50;92.00;;;;;;5110476;27;20665;-69
2023/05/24 07:47:41;;;;;;;6.43;2.80;;;12.10;92.50;;;;;;5110343;27;20619;-69
2023/05/24 07:50:10;;;;;;;7.60;1.90;;;11.80;93.20;;;;;;5113215;27;20975;-70
2023/05/24 07:52:38;;;;;;;3.63;1.90;;;11.90;92.90;;;;;;5114847;27;20631;-69
2023/05/24 07:55:06;;;;;;;1.47;1.37;;;12.00;92.90;;;;;;5115542;27;20620;-69
2023/05/24 07:57:32;;;;;;;2.27;2.07;;;12.10;93.20;;;;;;5113816;27;21057;-69
2023/05/24 08:00:05;;;;;;;1.67;1.47;;;12.20;92.80;;;;;;5108219;27;20624;-69
2023/05/24 08:02:42;;;;;;;5.03;2.53;;;12.30;92.60;;;;;;5108701;27;20621;-69
2023/05/24 08:05:11;;;;;;;4.07;2.23;;;12.40;93.00;;;;;;5109308;27;20622;-68
2023/05/24 08:07:39;;;;;;;3.30;2.53;;;12.10;92.40;;;;;;5106803;27;20621;-69
2023/05/24 08:10:07;;;;;;;11.90;3.07;;;12.00;92.50;;;;;;5105638;27;20617;-69
2023/05/24 08:12:34;;;;;;;2.73;2.47;;;12.10;93.00;;;;;;5120752;27;20620;-69
2023/05/24 08:15:00;;;;;;;2.30;2.13;;;12.40;92.90;;;;;;5117189;27;20630;-69
2023/05/24 08:17:28;;;;;;;3.73;2.27;;;12.40;92.50;;;;;;5110492;27;20664;-69
2023/05/24 08:19:56;;;;;;;1.90;1.80;;;12.30;93.00;;;;;;5120777;27;20640;-69
2023/05/24 08:22:23;;;;;;;4.30;2.10;;;12.50;92.20;;;;;;5116597;27;20659;-69
2023/05/24 08:24:50;;;;;;;2.30;2.00;;;12.50;92.30;;;;;;5109733;27;20617;-69
2023/05/24 08:27:17;;;;;;;4.43;1.90;;;12.50;92.00;;;;;;5117669;27;20653;-69
2023/05/24 08:29:44;;;;;;;2.30;2.10;;;12.50;92.70;;;;;;5119506;27;20624;-69
2023/05/24 08:32:10;;;;;;;4.60;2.10;;;12.50;92.40;;;;;;5120578;27;20652;-69
2023/05/24 08:34:38;;;;;;;3.33;2.53;;;12.30;92.80;;;;;;5121505;27;21175;-69
2023/05/24 08:37:08;;;;;;;2.57;2.37;;;12.30;93.40;;;;;;5118371;27;20743;-69
2023/05/24 08:39:35;;;;;;;2.43;2.13;;;12.50;92.50;;;;;;5113801;27;20979;-69
2023/05/24 08:42:02;;;;;;;4.80;2.40;;;12.60;92.20;;;;;;5119588;27;21069;-69
2023/05/24 08:44:30;;;;;;;2.63;2.00;;;12.60;91.90;;;;;;5121534;27;20619;-69
2023/05/24 08:46:58;;;;;;;6.93;4.20;;;12.40;92.30;;;;;;5120210;27;20679;-69
2023/05/24 08:49:25;;;;;;;3.40;2.40;;;12.20;92.40;;;;;;5116646;27;20620;-68
2023/05/24 08:51:52;;;;;;;3.13;2.10;;;12.30;92.30;;;;;;5109635;27;20659;-69
2023/05/24 08:54:22;;;;;;;1.77;1.67;;;12.20;92.70;;;;;;5110199;27;20638;-69
2023/05/24 08:56:49;;;;;;;4.60;2.50;;;12.10;92.70;;;;;;5118369;27;20663;-69
2023/05/24 08:59:16;;;;;;;7.73;1.83;;;12.50;92.10;;;;;;5120203;27;20663;-69
2023/05/24 09:01:47;;;;;;;5.77;2.50;;;12.60;91.80;;;;;;5120605;27;21200;-69
2023/05/24 09:04:14;;;;;;;2.57;2.07;;;12.90;91.30;;;;;;5120111;27;20628;-69
2023/05/24 09:06:41;;;;;;;3.77;2.17;;;12.90;90.90;;;;;;5107939;27;20757;-69
2023/05/24 09:09:10;;;;;;;4.23;2.43;;;12.90;90.80;;;;;;5114080;27;20628;-69
2023/05/24 09:11:40;;;;;;;2.73;1.70;;;12.90;90.30;;;;;;5119772;27;20650;-69
2023/05/24 09:14:08;;;;;;;3.37;1.73;;;12.80;91.00;;;;;;5120670;27;20712;-69
2023/05/24 09:16:35;;;;;;;2.60;2.33;;;13.00;90.40;;;;;;5117957;27;20655;-69
2023/05/24 09:19:02;;;;;;;3.73;2.33;;;13.00;90.50;;;;;;5118085;27;20667;-69
2023/05/24 09:21:29;;;;;;;2.07;1.90;;;13.10;90.50;;;;;;5118174;27;20649;-69
2023/05/24 09:23:57;;;;;;;2.40;2.20;;;13.30;89.80;;;;;;5120942;27;20622;-69
2023/05/24 09:26:25;;;;;;;3.30;3.00;;;13.40;89.50;;;;;;5115497;27;20665;-69
2023/05/24 09:28:55;;;;;;;2.33;1.80;;;13.30;90.40;;;;;;5119554;27;20636;-69
2023/05/24 09:31:32;;;;;;;2.30;2.10;;;13.10;91.00;;;;;;5120102;27;20692;-69
2023/05/24 09:33:59;;;;;;;5.70;2.47;;;13.20;90.90;;;;;;5109436;27;20618;-69
2023/05/24 09:36:28;;;;;;;3.60;1.73;;;13.30;90.30;;;;;;5117360;27;21026;-69
2023/05/24 09:39:08;;;;;;;2.07;1.90;;;13.10;90.30;;;;;;5118991;27;20664;-69
2023/05/24 09:41:36;;;;;;;3.40;2.07;;;12.50;90.60;;;;;;5112917;27;21244;-69
2023/05/24 09:44:05;;;;;;;2.40;1.87;;;12.50;91.20;;;;;;5119592;27;20631;-69
2023/05/24 09:46:37;;;;;;;2.83;2.13;;;12.60;91.60;;;;;;5120350;27;21323;-69
2023/05/24 09:49:05;;;;;;;3.40;2.40;;;12.80;91.30;;;;;;5116933;27;21024;-69
2023/05/24 09:51:32;;;;;;;2.30;2.10;;;12.80;91.00;;;;;;5119490;27;21013;-69
2023/05/24 09:54:02;;;;;;;2.20;1.93;;;12.80;91.00;;;;;;5119493;27;20670;-69
2023/05/24 09:56:29;;;;;;;3.60;1.77;;;12.50;91.80;;;;;;5117220;27;20645;-69
2023/05/24 09:58:56;;;;;;;2.03;1.93;;;12.50;91.80;;;;;;5117222;27;20712;-69
2023/05/24 10:01:25;;;;;;;4.80;2.50;;;12.40;91.40;;;;;;5118974;27;22144;-69
2023/05/24 10:03:52;;;;;;;3.27;2.10;;;12.20;92.10;;;;;;5120121;27;20707;-70
2023/05/24 10:06:20;;;;;;;2.07;1.83;;;12.40;92.10;;;;;;5117903;27;20752;-69
2023/05/24 10:08:48;;;;;;;2.80;2.10;;;12.20;91.70;;;;;;5117727;27;20623;-69
2023/05/24 10:11:15;;;;;;;10.10;3.40;;;12.30;92.10;;;;;;5113629;27;20656;-69
2023/05/24 10:13:42;;;;;;;5.83;2.87;;;12.40;92.10;;;;;;5120118;27;20623;-69
2023/05/24 10:16:09;;;;;;;9.43;2.60;;;12.50;91.70;;;;;;5112485;27;20670;-69
2023/05/24 10:18:38;;;;;;;2.63;2.43;;;12.70;92.40;;;;;;5119066;27;20664;-69
2023/05/24 10:21:08;;;;;;;4.00;2.40;;;12.90;91.90;;;;;;5115287;27;20755;-69
2023/05/24 10:23:37;;;;;;;4.07;2.30;;;13.10;91.10;;;;;;5117680;27;20631;-69
2023/05/24 10:26:06;;;;;;;3.03;2.70;;;12.70;90.60;;;;;;5119919;27;20678;-69
2023/05/24 10:28:36;;;;;;;3.20;2.10;;;12.60;91.70;;;;;;5119366;27;20620;-69
2023/05/24 10:31:08;;;;;;;4.40;2.60;;;12.50;91.60;;;;;;5115746;27;20717;-69
2023/05/24 10:33:39;;;;;;;5.03;2.37;;;12.40;91.40;;;;;;5116606;27;21256;-69
2023/05/24 10:36:08;;;;;;;5.23;2.70;;;12.50;91.50;;;;;;5110268;28;20664;-69
2023/05/24 10:38:38;;;;;;;2.70;2.50;;;12.40;91.60;;;;;;5116463;28;20705;-69
2023/05/24 10:41:06;;;;;;;2.10;1.90;;;12.10;91.60;;;;;;5116130;28;21203;-69
2023/05/24 10:43:34;;;;;;;3.77;2.30;;;12.00;91.40;;;;;;5116159;28;20627;-69
2023/05/24 10:46:03;;;;;;;2.17;1.90;;;12.10;91.90;;;;;;5117141;28;20643;-69
2023/05/24 10:48:39;;;;;;;9.40;2.00;;;11.90;91.60;;;;;;5119799;27;20630;-69
2023/05/24 10:51:32;;;;;;;4.67;2.03;;;11.80;91.50;;;;;;5102140;28;20660;-69
2023/05/24 10:54:15;;;;;;;5.80;2.80;;;12.00;91.40;;;;;;5115662;28;20623;-69
2023/05/24 10:56:44;;;;;;;8.00;2.73;;;11.90;91.00;;;;;;5119661;28;20753;-69
2023/05/24 10:59:36;;;;;;;2.30;1.73;;;11.80;91.30;;;;;;5113984;27;20660;-69
2023/05/24 11:02:04;;;;;;;2.93;2.00;;;11.70;91.70;;;;;;5119410;28;20654;-69
2023/05/24 11:04:36;;;;;;;5.07;2.00;;;12.00;91.80;;;;;;5107877;28;20627;-69
2023/05/24 11:07:04;;;;;;;4.87;2.60;;;12.10;91.80;;;;;;5112341;28;20654;-69
2023/05/24 11:09:32;;;;;;;2.83;2.53;;;12.10;91.40;;;;;;5116645;28;21135;-69
2023/05/24 11:12:02;;;;;;;3.90;2.17;;;11.90;90.50;;;;;;5115964;28;21025;-69
2023/05/24 11:14:31;;;;;;;5.60;2.37;;;11.90;90.80;;;;;;5119294;28;21179;-69
2023/05/24 11:16:59;;;;;;;4.03;2.50;;;12.10;91.00;;;;;;5115742;28;20647;-69
2023/05/24 11:19:32;;;;;;;3.63;2.50;;;12.30;91.20;;;;;;5115578;28;20669;-69
2023/05/24 11:22:02;;;;;;;2.57;2.37;;;12.30;90.50;;;;;;5116769;28;20652;-69
2023/05/24 11:24:30;;;;;;;2.17;1.90;;;12.70;90.60;;;;;;5113774;28;20621;-69
2023/05/24 11:26:57;;;;;;;2.60;2.20;;;12.90;90.10;;;;;;5119068;28;20693;-69
2023/05/24 11:29:24;;;;;;;4.00;2.13;;;13.20;89.90;;;;;;5118986;28;20632;-69
2023/05/24 11:31:52;;;;;;;2.47;1.87;;;13.50;87.10;;;;;;5115653;27;20675;-69
2023/05/24 11:34:20;;;;;;;2.93;2.23;;;13.60;87.30;;;;;;5117229;27;21201;-69
2023/05/24 11:36:48;;;;;;;3.00;2.03;;;13.30;85.50;;;;;;5119786;27;21284;-69
2023/05/24 11:39:16;;;;;;;2.20;2.00;;;13.60;86.00;;;;;;5119542;27;20667;-69
2023/05/24 11:41:44;;;;;;;6.20;3.30;;;13.30;83.10;;;;;;5119404;27;20684;-69
2023/05/24 11:44:12;;;;;;;3.00;2.00;;;13.60;85.90;;;;;;5111083;27;21154;-69
2023/05/24 11:46:40;;;;;;;2.40;2.13;;;13.80;86.40;;;;;;5119201;27;21245;-69
2023/05/24 11:49:07;;;;;;;2.10;1.67;;;14.00;84.80;;;;;;5121761;27;20622;-69
2023/05/24 11:51:36;;;;;;;3.17;2.43;;;14.00;82.90;;;;;;5121188;27;20645;-69
2023/05/24 11:54:03;;;;;;;2.10;1.87;;;14.30;82.40;;;;;;5120108;27;20758;-69
2023/05/24 11:56:31;;;;;;;3.47;3.03;;;14.60;82.80;;;;;;5111448;27;20644;-69
2023/05/24 11:59:09;;;;;;;2.27;1.87;;;15.20;80.80;;;;;;5116665;27;20662;-69
2023/05/24 12:01:36;;;;;;;2.90;2.00;;;15.90;79.70;;;;;;5116100;27;20655;-69
2023/05/24 12:04:05;;;;;;;3.23;2.50;;;17.40;76.90;;;;;;5119487;27;20637;-69
2023/05/24 12:06:37;;;;;;;6.80;2.00;;;18.00;69.20;;;;;;5110533;27;20665;-69
2023/05/24 12:09:12;;;;;;;4.27;2.60;;;18.10;74.80;;;;;;5119961;27;20623;-69
2023/05/24 12:11:41;;;;;;;9.50;2.90;;;18.60;71.20;;;;;;5110110;27;20712;-69
2023/05/24 12:14:12;;;;;;;4.03;2.87;;;19.70;71.10;;;;;;5119342;27;20624;-69
2023/05/24 12:16:39;;;;;;;4.70;2.60;;;20.90;65.80;;;;;;5121981;27;20649;-70
2023/05/24 12:19:06;;;;;;;4.67;2.53;;;21.30;63.50;;;;;;5122142;27;20652;-70
2023/05/24 12:21:33;;;;;;;2.57;2.37;;;21.90;60.80;;;;;;5120557;27;20657;-69
2023/05/24 12:24:11;;;;;;;4.70;2.37;;;22.10;59.40;;;;;;5116247;27;20638;-70
2023/05/24 12:26:43;;;;;;;2.43;2.23;;;22.50;55.80;;;;;;5120119;27;20647;-70
2023/05/24 12:29:11;;;;;;;2.37;1.37;;;23.50;54.30;;;;;;5122219;27;20631;-70
2023/05/24 12:31:40;;;;;;;3.20;2.30;;;23.50;53.80;;;;;;5120686;27;20663;-70
2023/05/24 12:34:07;;;;;;;3.30;2.23;;;23.90;50.80;;;;;;5118248;27;20634;-68
2023/05/24 12:36:35;;;;;;;2.20;2.00;;;23.70;49.80;;;;;;5118288;27;20652;-68
2023/05/24 12:39:16;;;;;;;2.40;2.10;;;23.50;50.00;;;;;;5117900;27;20731;-68
2023/05/24 12:41:45;;;;;;;3.20;2.63;;;23.30;52.60;;;;;;5108238;27;20645;-69
2023/05/24 12:44:11;;;;;;;2.53;2.30;;;23.20;52.50;;;;;;5121760;27;20622;-69
2023/05/24 12:46:38;;;;;;;2.93;2.60;;;24.40;51.10;;;;;;5119697;27;20644;-69
2023/05/24 12:49:05;;;;;;;2.90;2.10;;;25.10;48.90;;;;;;5120293;27;20712;-69
2023/05/24 12:51:32;;;;;;;2.47;2.27;;;25.20;47.70;;;;;;5120810;27;20878;-69